Time;durP1;ratioP1;P1;durP2;ratioP2;P2;SDS_P1;SDS_P2;PMS_P1;PMS_P2;Temp;Humidity;BMP_temperature;BMP_pressure;BME280_temperature;BME280_humidity;BME280_pressure;Samples;Min_cycle;Max_cycle;Signal;HPM_P1;HPM_P2
2022/07/30 00:02:03;;;;;;;4.13;2.78;;;15.90;99.90;;;;;;5074695;28;20079;-66
2022/07/30 00:04:28;;;;;;;6.28;3.40;;;15.80;99.90;;;;;;5074572;28;20048;-67
2022/07/30 00:06:54;;;;;;;3.33;2.53;;;15.80;99.90;;;;;;5073094;28;20503;-66
2022/07/30 00:09:19;;;;;;;4.10;2.95;;;15.80;99.90;;;;;;5074560;28;20080;-67
2022/07/30 00:11:45;;;;;;;6.10;2.38;;;15.80;99.90;;;;;;5074003;28;20048;-66
2022/07/30 00:14:11;;;;;;;8.90;2.60;;;15.70;99.90;;;;;;5074348;28;20114;-67
2022/07/30 00:16:37;;;;;;;3.67;2.67;;;15.80;99.90;;;;;;5074079;28;20083;-67
2022/07/30 00:19:03;;;;;;;4.70;2.80;;;15.70;99.90;;;;;;5074371;28;20036;-67
2022/07/30 00:21:29;;;;;;;3.28;2.25;;;15.70;99.90;;;;;;5073937;28;20101;-67
2022/07/30 00:23:54;;;;;;;4.05;2.42;;;15.70;99.90;;;;;;5074246;28;20395;-67
2022/07/30 00:26:20;;;;;;;6.28;2.67;;;15.70;99.90;;;;;;5074135;28;20043;-67
2022/07/30 00:28:46;;;;;;;5.10;3.20;;;15.60;99.90;;;;;;5074134;28;20068;-67
2022/07/30 00:31:11;;;;;;;5.53;2.70;;;15.60;99.90;;;;;;5072563;28;20041;-67
2022/07/30 00:33:37;;;;;;;4.43;2.88;;;15.60;99.90;;;;;;5073696;28;20070;-66
2022/07/30 00:36:03;;;;;;;5.93;2.83;;;15.60;99.90;;;;;;5073992;28;20032;-67
2022/07/30 00:38:29;;;;;;;3.95;2.78;;;15.50;99.90;;;;;;5073901;28;20119;-67
2022/07/30 00:40:54;;;;;;;4.50;2.92;;;15.50;99.90;;;;;;5073370;28;20498;-67
2022/07/30 00:43:20;;;;;;;4.78;3.30;;;15.50;99.90;;;;;;5073890;28;20090;-67
2022/07/30 00:45:46;;;;;;;6.15;2.90;;;15.50;99.90;;;;;;5073812;28;20055;-67
2022/07/30 00:48:15;;;;;;;5.50;3.40;;;15.50;99.90;;;;;;5073851;28;20044;-67
2022/07/30 00:50:41;;;;;;;8.52;3.17;;;15.40;99.90;;;;;;5073681;28;20044;-67
2022/07/30 00:53:07;;;;;;;5.93;3.22;;;15.30;99.90;;;;;;5073556;28;20040;-67
2022/07/30 00:55:33;;;;;;;3.88;2.55;;;15.40;99.90;;;;;;5073697;28;20392;-67
2022/07/30 00:57:59;;;;;;;6.35;3.40;;;15.40;99.90;;;;;;5072078;28;20049;-67
2022/07/30 01:00:26;;;;;;;4.82;3.20;;;15.30;99.90;;;;;;5073549;28;20037;-67
2022/07/30 01:02:51;;;;;;;5.85;2.80;;;15.30;99.90;;;;;;5073526;28;20177;-67
2022/07/30 01:05:17;;;;;;;5.60;2.83;;;15.30;99.90;;;;;;5073446;28;20068;-67
2022/07/30 01:07:43;;;;;;;3.67;2.50;;;15.20;99.90;;;;;;5073454;28;20493;-67
2022/07/30 01:10:11;;;;;;;4.32;2.38;;;15.20;99.90;;;;;;5073446;28;20040;-67
2022/07/30 01:12:38;;;;;;;3.35;2.20;;;15.20;99.90;;;;;;5073176;28;20128;-67
2022/07/30 01:15:06;;;;;;;4.35;2.47;;;15.10;99.90;;;;;;5073283;28;20118;-67
2022/07/30 01:17:33;;;;;;;5.40;2.72;;;15.10;99.90;;;;;;5073299;28;20041;-67
2022/07/30 01:20:03;;;;;;;3.40;2.63;;;15.10;99.90;;;;;;5073283;28;20044;-67
2022/07/30 01:22:42;;;;;;;4.60;3.08;;;15.00;99.90;;;;;;5072115;28;20108;-67
2022/07/30 01:25:19;;;;;;;3.95;2.60;;;15.00;99.90;;;;;;5073230;28;20128;-67
2022/07/30 01:27:51;;;;;;;4.57;2.95;;;14.90;99.90;;;;;;5073252;28;20040;-67
2022/07/30 01:30:20;;;;;;;3.45;2.30;;;15.00;99.90;;;;;;5072903;28;20043;-67
2022/07/30 01:32:48;;;;;;;3.97;2.58;;;14.90;99.90;;;;;;5073196;28;20094;-67
2022/07/30 01:35:16;;;;;;;6.28;2.97;;;15.00;99.90;;;;;;5073048;28;20076;-67
2022/07/30 01:37:43;;;;;;;7.93;3.67;;;14.90;99.90;;;;;;5072823;28;20123;-67
2022/07/30 01:40:09;;;;;;;5.80;3.60;;;14.80;99.90;;;;;;5073123;28;20063;-67
2022/07/30 01:42:37;;;;;;;7.55;3.63;;;14.80;99.90;;;;;;5072702;28;20094;-67
2022/07/30 01:45:04;;;;;;;7.93;3.67;;;14.80;99.90;;;;;;5073076;28;20518;-68
2022/07/30 01:47:32;;;;;;;8.43;4.65;;;14.80;99.90;;;;;;5072663;28;20075;-68
2022/07/30 01:50:00;;;;;;;6.20;4.00;;;14.80;99.90;;;;;;5072679;28;20052;-67
2022/07/30 01:52:29;;;;;;;6.75;4.07;;;14.80;99.90;;;;;;5072971;28;20044;-67
2022/07/30 01:54:57;;;;;;;8.88;4.43;;;14.80;99.90;;;;;;5077317;28;20093;-67
2022/07/30 01:57:24;;;;;;;6.63;4.28;;;14.80;99.90;;;;;;5077018;28;20399;-67
2022/07/30 01:59:54;;;;;;;6.55;4.50;;;14.70;99.90;;;;;;5075740;28;20488;-67
2022/07/30 02:02:19;;;;;;;10.10;4.30;;;14.70;99.90;;;;;;5077217;28;20075;-61
2022/07/30 02:04:45;;;;;;;7.13;4.30;;;14.70;99.90;;;;;;5076902;28;20080;-61
2022/07/30 02:07:18;;;;;;;8.07;4.65;;;14.80;99.90;;;;;;5076845;28;20072;-61
2022/07/30 02:09:58;;;;;;;4.20;3.15;;;14.70;99.90;;;;;;5075358;28;20059;-61
2022/07/30 02:12:28;;;;;;;9.73;3.63;;;14.70;99.90;;;;;;5076444;28;20411;-62
2022/07/30 02:15:07;;;;;;;3.67;2.95;;;14.60;99.90;;;;;;5076752;28;20134;-61
2022/07/30 02:17:56;;;;;;;4.60;2.97;;;14.60;99.90;;;;;;5076691;28;20040;-61
2022/07/30 02:20:25;;;;;;;3.63;2.70;;;14.60;99.90;;;;;;5076588;28;20038;-61
2022/07/30 02:22:57;;;;;;;5.40;2.95;;;14.60;99.90;;;;;;5076653;28;20071;-61
2022/07/30 02:25:24;;;;;;;4.72;2.70;;;14.60;99.90;;;;;;5074921;28;20059;-61
2022/07/30 02:27:54;;;;;;;3.67;2.40;;;14.60;99.90;;;;;;5076525;28;20040;-61
2022/07/30 02:30:25;;;;;;;4.00;2.90;;;14.50;99.90;;;;;;5076455;28;20047;-61
2022/07/30 02:32:56;;;;;;;7.28;3.20;;;14.40;99.90;;;;;;5076443;28;20500;-61
2022/07/30 02:35:25;;;;;;;8.93;3.50;;;14.40;99.90;;;;;;5075222;28;20044;-61
2022/07/30 02:37:53;;;;;;;6.93;3.85;;;14.30;99.90;;;;;;5076058;28;20450;-61
2022/07/30 02:40:19;;;;;;;5.05;3.28;;;14.30;99.90;;;;;;5076246;28;20124;-62
2022/07/30 02:42:50;;;;;;;4.68;3.17;;;14.20;99.90;;;;;;5075876;28;20039;-62
2022/07/30 02:45:17;;;;;;;8.15;4.05;;;14.20;99.90;;;;;;5076142;28;20162;-62
2022/07/30 02:47:45;;;;;;;7.45;3.78;;;14.20;99.90;;;;;;5075857;28;20032;-61
2022/07/30 02:50:11;;;;;;;5.82;3.58;;;14.10;99.90;;;;;;5076126;28;20488;-61
2022/07/30 02:52:39;;;;;;;8.68;3.92;;;14.10;99.90;;;;;;5075784;28;20083;-61
2022/07/30 02:55:08;;;;;;;4.68;3.13;;;14.10;99.90;;;;;;5074369;28;20045;-62
2022/07/30 02:57:34;;;;;;;8.35;3.95;;;14.10;99.90;;;;;;5075573;28;20037;-61
2022/07/30 03:00:02;;;;;;;6.63;3.70;;;14.00;99.90;;;;;;5075646;28;20067;-61
2022/07/30 03:02:28;;;;;;;5.18;3.55;;;14.10;99.90;;;;;;5075842;28;20041;-62
2022/07/30 03:04:56;;;;;;;5.45;3.63;;;14.10;99.90;;;;;;5075741;28;20120;-62
2022/07/30 03:07:23;;;;;;;5.85;4.32;;;14.10;99.90;;;;;;5075470;28;20044;-61
2022/07/30 03:09:53;;;;;;;7.82;4.05;;;14.10;99.90;;;;;;5075645;28;20052;-62
2022/07/30 03:12:21;;;;;;;7.28;4.68;;;14.00;99.90;;;;;;5075422;28;20061;-61
2022/07/30 03:14:47;;;;;;;6.07;3.80;;;14.00;99.90;;;;;;5073948;28;20105;-61
2022/07/30 03:17:14;;;;;;;10.90;5.28;;;14.00;99.90;;;;;;5075628;28;20036;-61
2022/07/30 03:19:41;;;;;;;9.20;4.80;;;14.00;99.90;;;;;;5075270;28;20036;-61
2022/07/30 03:22:08;;;;;;;6.18;4.50;;;14.10;99.90;;;;;;5075588;28;20041;-62
2022/07/30 03:24:36;;;;;;;6.68;4.80;;;14.00;99.90;;;;;;5075531;28;20153;-61
2022/07/30 03:27:03;;;;;;;7.80;4.38;;;14.00;99.90;;;;;;5073894;28;20071;-62
2022/07/30 03:29:30;;;;;;;6.85;4.65;;;14.00;99.90;;;;;;5075386;28;20101;-62
2022/07/30 03:31:56;;;;;;;10.85;5.70;;;14.00;99.90;;;;;;5075444;28;20037;-61
2022/07/30 03:34:23;;;;;;;8.30;4.97;;;14.10;99.90;;;;;;5075136;28;20041;-61
2022/07/30 03:36:49;;;;;;;7.35;4.85;;;14.00;99.90;;;;;;5075270;28;20036;-61
2022/07/30 03:39:16;;;;;;;9.73;5.25;;;14.00;99.90;;;;;;5075215;28;20122;-62
2022/07/30 03:41:42;;;;;;;7.00;5.07;;;14.00;99.90;;;;;;5074881;28;20039;-61
2022/07/30 03:44:09;;;;;;;8.90;4.70;;;14.00;99.90;;;;;;5074821;28;20032;-61
2022/07/30 03:46:36;;;;;;;5.63;4.20;;;14.00;99.90;;;;;;5057177;28;20040;-61
2022/07/30 03:49:04;;;;;;;6.95;5.00;;;13.90;99.90;;;;;;5074995;28;20068;-61
2022/07/30 03:51:35;;;;;;;6.63;4.40;;;13.90;99.90;;;;;;5074691;28;20064;-61
2022/07/30 03:54:02;;;;;;;7.40;4.03;;;13.90;99.90;;;;;;5073685;28;20071;-61
2022/07/30 03:56:28;;;;;;;4.82;3.78;;;13.90;99.90;;;;;;5074844;28;20455;-61
2022/07/30 03:58:53;;;;;;;5.20;3.72;;;13.90;99.90;;;;;;5073668;28;20079;-61
2022/07/30 04:01:24;;;;;;;7.22;4.15;;;13.90;99.90;;;;;;5074657;28;20041;-61
2022/07/30 04:03:50;;;;;;;4.90;3.83;;;14.00;99.90;;;;;;5074779;28;20063;-61
2022/07/30 04:06:15;;;;;;;6.35;3.55;;;14.00;99.90;;;;;;5074689;28;20515;-62
2022/07/30 04:08:41;;;;;;;5.53;4.05;;;13.90;99.90;;;;;;5074352;28;20059;-61
2022/07/30 04:11:06;;;;;;;8.18;3.83;;;14.00;99.90;;;;;;5074601;28;20072;-61
2022/07/30 04:13:32;;;;;;;6.18;4.13;;;14.20;99.90;;;;;;5074065;28;20530;-61
2022/07/30 04:16:04;;;;;;;6.68;3.60;;;14.00;99.90;;;;;;5072714;28;20040;-61
2022/07/30 04:18:36;;;;;;;6.00;4.03;;;14.00;99.90;;;;;;5074137;28;20115;-61
2022/07/30 04:21:04;;;;;;;5.57;3.80;;;14.00;99.90;;;;;;5074358;28;20476;-61
2022/07/30 04:23:32;;;;;;;5.45;4.00;;;14.00;99.90;;;;;;5072784;28;20048;-61
2022/07/30 04:25:59;;;;;;;9.95;4.28;;;14.00;99.90;;;;;;5074278;28;20045;-61
2022/07/30 04:28:26;;;;;;;6.40;3.67;;;14.00;99.90;;;;;;5073842;28;20044;-61
2022/07/30 04:30:53;;;;;;;6.63;4.63;;;14.00;99.90;;;;;;5074182;28;20033;-61
2022/07/30 04:33:19;;;;;;;7.22;4.35;;;14.10;99.90;;;;;;5074015;28;20403;-61
2022/07/30 04:35:45;;;;;;;8.07;4.60;;;14.20;99.90;;;;;;5072424;28;20036;-61
2022/07/30 04:38:13;;;;;;;8.52;4.82;;;14.40;99.90;;;;;;5073993;28;20037;-61
2022/07/30 04:40:39;;;;;;;4.90;4.18;;;14.20;99.90;;;;;;5072375;28;20070;-61
2022/07/30 04:43:05;;;;;;;5.78;3.97;;;14.30;99.90;;;;;;5073605;28;20094;-61
2022/07/30 04:45:31;;;;;;;9.00;5.05;;;14.30;99.90;;;;;;5072306;28;20122;-61
2022/07/30 04:47:57;;;;;;;5.43;3.95;;;14.40;99.90;;;;;;5073621;28;20503;-61
2022/07/30 04:50:26;;;;;;;6.72;4.13;;;14.50;99.90;;;;;;5073431;28;20119;-61
2022/07/30 04:52:54;;;;;;;6.55;4.05;;;14.50;99.90;;;;;;5072214;28;20040;-61
2022/07/30 04:55:22;;;;;;;7.38;3.95;;;14.50;99.90;;;;;;5073507;28;20044;-61
2022/07/30 04:57:50;;;;;;;5.68;3.85;;;14.60;99.90;;;;;;5073411;28;20527;-61
2022/07/30 05:00:16;;;;;;;7.15;4.18;;;14.60;99.90;;;;;;5072006;28;20036;-62
2022/07/30 05:02:43;;;;;;;6.70;4.68;;;14.70;99.90;;;;;;5073263;28;20075;-61
2022/07/30 05:05:11;;;;;;;5.07;3.83;;;14.70;99.90;;;;;;5071987;28;20080;-61
2022/07/30 05:07:38;;;;;;;6.15;4.13;;;14.80;99.90;;;;;;5073501;28;20043;-61
2022/07/30 05:10:05;;;;;;;6.18;4.28;;;14.90;99.90;;;;;;5073468;28;20550;-61
2022/07/30 05:12:32;;;;;;;7.22;4.55;;;14.90;99.90;;;;;;5073116;28;20109;-61
2022/07/30 05:14:58;;;;;;;8.18;3.88;;;15.00;99.90;;;;;;5073255;28;20074;-61
2022/07/30 05:17:24;;;;;;;9.55;5.30;;;15.10;99.90;;;;;;5072051;28;20040;-61
2022/07/30 05:19:50;;;;;;;5.57;3.88;;;15.40;99.90;;;;;;5073262;28;20075;-61
2022/07/30 05:22:15;;;;;;;9.23;4.75;;;15.20;99.90;;;;;;5071775;28;20463;-62
2022/07/30 05:24:41;;;;;;;7.43;4.78;;;15.30;99.90;;;;;;5073293;28;20523;-61
2022/07/30 05:27:06;;;;;;;6.40;3.83;;;15.40;99.90;;;;;;5071312;28;20079;-61
2022/07/30 05:29:32;;;;;;;6.40;4.32;;;15.40;99.90;;;;;;5072564;28;20036;-61
2022/07/30 05:31:58;;;;;;;6.20;4.13;;;15.50;99.90;;;;;;5073136;28;20043;-61
2022/07/30 05:34:23;;;;;;;7.13;4.15;;;15.60;99.90;;;;;;5073030;28;20082;-61
2022/07/30 05:36:49;;;;;;;7.60;4.75;;;15.60;99.90;;;;;;5073138;28;20101;-61
2022/07/30 05:39:15;;;;;;;5.93;4.57;;;15.70;99.90;;;;;;5071902;28;20098;-61
2022/07/30 05:41:41;;;;;;;9.40;4.40;;;15.80;99.90;;;;;;5071559;28;20044;-61
2022/07/30 05:44:07;;;;;;;7.05;4.47;;;15.80;99.90;;;;;;5071525;28;20412;-61
2022/07/30 05:46:33;;;;;;;7.18;4.70;;;15.90;99.90;;;;;;5073000;28;20452;-61
2022/07/30 05:48:58;;;;;;;5.63;4.10;;;15.90;99.90;;;;;;5072681;28;20515;-61
2022/07/30 05:51:24;;;;;;;6.78;4.53;;;16.10;99.90;;;;;;5072605;28;20131;-61
2022/07/30 05:53:50;;;;;;;7.55;4.00;;;16.10;99.90;;;;;;5072848;28;20072;-61
2022/07/30 05:56:16;;;;;;;6.53;4.32;;;16.20;99.90;;;;;;5071387;28;20036;-61
2022/07/30 05:58:42;;;;;;;5.65;4.15;;;16.20;99.90;;;;;;5071353;28;20043;-61
2022/07/30 06:01:07;;;;;;;6.97;4.22;;;16.20;99.90;;;;;;5072815;28;20033;-61
2022/07/30 06:03:33;;;;;;;6.63;4.35;;;16.30;99.90;;;;;;5072534;28;20080;-61
2022/07/30 06:06:01;;;;;;;6.32;4.18;;;16.40;99.90;;;;;;5072840;28;20048;-61
2022/07/30 06:08:27;;;;;;;7.95;4.78;;;16.50;99.90;;;;;;5072805;28;20404;-61
2022/07/30 06:10:52;;;;;;;5.53;4.38;;;16.50;99.90;;;;;;5072967;28;20040;-61
2022/07/30 06:13:18;;;;;;;5.07;3.38;;;16.60;99.90;;;;;;5072283;28;20048;-61
2022/07/30 06:15:44;;;;;;;8.07;4.97;;;16.70;99.90;;;;;;5072781;28;20037;-61
2022/07/30 06:18:09;;;;;;;7.15;4.18;;;16.80;99.90;;;;;;5072385;28;20119;-61
2022/07/30 06:20:35;;;;;;;6.18;4.35;;;16.90;99.90;;;;;;5072676;28;20144;-61
2022/07/30 06:23:00;;;;;;;6.80;4.40;;;17.10;99.90;;;;;;5071141;28;20064;-61
2022/07/30 06:25:26;;;;;;;6.43;4.07;;;17.10;99.90;;;;;;5072327;28;20044;-61
2022/07/30 06:27:52;;;;;;;5.78;3.85;;;17.20;99.90;;;;;;5072287;28;20082;-61
2022/07/30 06:30:17;;;;;;;7.30;4.10;;;17.20;99.90;;;;;;5071372;28;20079;-62
2022/07/30 06:32:44;;;;;;;5.75;3.88;;;17.30;99.90;;;;;;5054452;28;20037;-61
2022/07/30 06:35:10;;;;;;;6.22;3.90;;;17.50;99.90;;;;;;5070796;28;20063;-61
2022/07/30 06:37:36;;;;;;;7.38;4.60;;;17.60;99.90;;;;;;5072274;28;20045;-61
2022/07/30 06:40:01;;;;;;;9.55;3.72;;;17.70;99.90;;;;;;5074589;28;20064;-61
2022/07/30 06:42:28;;;;;;;6.47;3.95;;;17.80;99.90;;;;;;5074412;28;20047;-61
2022/07/30 06:44:53;;;;;;;4.55;3.15;;;18.00;99.90;;;;;;5075942;28;20048;-61
2022/07/30 06:47:27;;;;;;;5.35;3.50;;;18.00;99.90;;;;;;5075883;28;20056;-61
2022/07/30 06:49:53;;;;;;;6.68;4.05;;;18.10;99.90;;;;;;5075773;28;20044;-61
2022/07/30 06:52:19;;;;;;;5.97;3.63;;;18.20;99.90;;;;;;5075829;28;20051;-61
2022/07/30 06:54:46;;;;;;;7.18;3.78;;;18.30;99.90;;;;;;5075659;28;20185;-61
2022/07/30 06:57:11;;;;;;;5.65;3.67;;;18.30;99.90;;;;;;5075714;28;20048;-61
2022/07/30 06:59:37;;;;;;;4.93;3.42;;;18.50;99.90;;;;;;5074094;28;20110;-61
2022/07/30 07:02:03;;;;;;;5.50;3.25;;;18.50;99.90;;;;;;5075321;28;20115;-62
2022/07/30 07:04:28;;;;;;;4.53;3.30;;;18.70;99.90;;;;;;5075269;28;20118;-61
2022/07/30 07:06:54;;;;;;;7.05;3.65;;;18.80;99.90;;;;;;5075490;28;20090;-62
2022/07/30 07:09:19;;;;;;;4.13;2.80;;;18.90;99.90;;;;;;5075546;28;20109;-61
2022/07/30 07:11:45;;;;;;;4.60;3.30;;;19.10;99.90;;;;;;5075427;28;20472;-61
2022/07/30 07:14:11;;;;;;;4.90;3.13;;;19.10;99.90;;;;;;5073725;28;20183;-61
2022/07/30 07:16:36;;;;;;;5.32;2.95;;;19.30;99.90;;;;;;5057256;28;20040;-62
2022/07/30 07:19:02;;;;;;;4.70;3.03;;;19.40;99.90;;;;;;5073814;28;20048;-62
2022/07/30 07:21:28;;;;;;;7.05;2.72;;;19.60;99.90;;;;;;5075002;28;20044;-62
2022/07/30 07:23:54;;;;;;;5.95;2.65;;;19.70;99.90;;;;;;5073696;28;20048;-61
2022/07/30 07:26:19;;;;;;;5.68;3.60;;;19.80;99.90;;;;;;5075209;28;20044;-63
2022/07/30 07:28:45;;;;;;;4.53;2.88;;;19.80;99.90;;;;;;5073732;28;20047;-62
2022/07/30 07:31:11;;;;;;;4.30;3.22;;;19.90;99.90;;;;;;5075382;28;20391;-62
2022/07/30 07:33:38;;;;;;;6.28;3.38;;;20.00;99.90;;;;;;5075196;28;20045;-62
2022/07/30 07:36:04;;;;;;;4.38;2.95;;;20.10;99.90;;;;;;5075256;28;20041;-62
2022/07/30 07:38:29;;;;;;;7.05;3.42;;;20.10;99.90;;;;;;5075145;28;20048;-61
2022/07/30 07:40:55;;;;;;;4.50;2.92;;;20.10;99.90;;;;;;5073676;28;20061;-62
2022/07/30 07:43:20;;;;;;;7.07;3.33;;;20.10;99.90;;;;;;5073892;28;20499;-61
2022/07/30 07:45:46;;;;;;;5.25;3.22;;;20.20;99.90;;;;;;5056943;28;20442;-61
2022/07/30 07:48:12;;;;;;;5.72;3.60;;;20.20;99.90;;;;;;5074802;28;20499;-61
2022/07/30 07:50:38;;;;;;;5.85;3.35;;;20.30;99.90;;;;;;5072863;28;20044;-61
2022/07/30 07:53:04;;;;;;;3.80;2.72;;;20.50;99.90;;;;;;5074878;28;20468;-61
2022/07/30 07:55:30;;;;;;;3.53;2.55;;;20.50;99.90;;;;;;5073324;28;20044;-60
2022/07/30 07:57:55;;;;;;;4.85;2.80;;;20.60;99.90;;;;;;5074875;28;20059;-61
2022/07/30 08:00:21;;;;;;;5.07;2.88;;;20.70;99.90;;;;;;5074515;28;20040;-61
2022/07/30 08:02:47;;;;;;;4.55;3.30;;;20.90;99.90;;;;;;5074472;28;20037;-62
2022/07/30 08:05:15;;;;;;;3.92;2.38;;;21.00;99.90;;;;;;5074733;28;20028;-61
2022/07/30 08:07:41;;;;;;;4.10;2.70;;;21.00;99.90;;;;;;5074215;28;20040;-61
2022/07/30 08:10:08;;;;;;;5.95;2.75;;;21.00;99.90;;;;;;5056445;28;20087;-61
2022/07/30 08:12:34;;;;;;;5.32;2.65;;;21.10;99.90;;;;;;5074259;28;20083;-62
2022/07/30 08:15:00;;;;;;;3.97;2.58;;;21.20;99.90;;;;;;5072837;28;20053;-61
2022/07/30 08:17:26;;;;;;;4.22;2.28;;;21.20;99.90;;;;;;5074082;28;20487;-61
2022/07/30 08:19:52;;;;;;;4.93;2.85;;;21.30;99.90;;;;;;5074325;28;20107;-61
2022/07/30 08:22:17;;;;;;;5.55;2.90;;;21.40;99.90;;;;;;5074247;28;20086;-61
2022/07/30 08:24:43;;;;;;;3.58;2.13;;;21.40;99.90;;;;;;5073819;28;20044;-61
2022/07/30 08:27:09;;;;;;;5.15;2.25;;;21.40;99.90;;;;;;5073815;28;20055;-61
2022/07/30 08:29:35;;;;;;;4.35;2.70;;;21.50;99.90;;;;;;5074030;28;20080;-61
2022/07/30 08:32:02;;;;;;;5.15;2.85;;;21.60;99.90;;;;;;5074052;28;20040;-62
2022/07/30 08:34:28;;;;;;;4.75;2.88;;;21.70;99.90;;;;;;5073992;28;20048;-67
2022/07/30 08:36:54;;;;;;;4.18;2.88;;;21.60;99.90;;;;;;5089675;28;20511;-62
2022/07/30 08:39:20;;;;;;;9.70;2.92;;;21.70;99.90;;;;;;5073984;28;20044;-61
2022/07/30 08:41:47;;;;;;;5.78;2.55;;;21.70;99.90;;;;;;5074006;28;20032;-61
2022/07/30 08:44:16;;;;;;;4.63;2.63;;;21.80;99.90;;;;;;5073623;28;20051;-61
2022/07/30 08:46:42;;;;;;;4.53;2.40;;;21.80;99.90;;;;;;5072288;28;20040;-63
2022/07/30 08:49:11;;;;;;;4.05;2.53;;;21.70;99.90;;;;;;5073820;28;20083;-62
2022/07/30 08:51:37;;;;;;;4.40;2.00;;;21.70;99.90;;;;;;5073730;28;20395;-61
2022/07/30 08:54:03;;;;;;;2.55;1.73;;;21.70;99.90;;;;;;5073630;28;20044;-62
2022/07/30 08:56:31;;;;;;;5.53;2.33;;;21.80;99.90;;;;;;5073653;28;20047;-62
2022/07/30 08:58:58;;;;;;;5.57;2.05;;;21.90;99.90;;;;;;5073525;28;20091;-61
2022/07/30 09:01:23;;;;;;;2.95;1.80;;;21.80;99.90;;;;;;5073239;28;20037;-62
2022/07/30 09:03:49;;;;;;;5.47;2.20;;;21.90;99.90;;;;;;5073500;28;20094;-61
2022/07/30 09:06:15;;;;;;;5.00;2.10;;;21.90;99.90;;;;;;5073562;28;20036;-61
2022/07/30 09:08:41;;;;;;;3.28;2.10;;;22.00;99.90;;;;;;5073803;28;20349;-61
2022/07/30 09:11:06;;;;;;;3.47;1.90;;;22.00;99.90;;;;;;5072028;28;20047;-62
2022/07/30 09:13:37;;;;;;;3.63;2.30;;;22.00;99.90;;;;;;5072981;28;20075;-62
2022/07/30 09:16:04;;;;;;;3.22;2.00;;;22.10;99.90;;;;;;5073539;28;20040;-61
2022/07/30 09:18:37;;;;;;;3.95;1.65;;;22.20;99.90;;;;;;5071829;28;20040;-62
2022/07/30 09:21:20;;;;;;;4.32;2.03;;;22.20;99.90;;;;;;5073015;28;20045;-61
2022/07/30 09:24:05;;;;;;;5.82;2.10;;;22.10;99.90;;;;;;5073023;28;20048;-62
2022/07/30 09:26:50;;;;;;;2.72;1.60;;;22.20;99.90;;;;;;5072877;28;20036;-62
2022/07/30 09:29:21;;;;;;;3.13;1.80;;;22.30;99.90;;;;;;5073075;28;20041;-62
2022/07/30 09:32:00;;;;;;;3.97;1.63;;;22.40;99.90;;;;;;5073032;28;20045;-62
2022/07/30 09:34:27;;;;;;;4.47;1.73;;;22.40;99.90;;;;;;5071371;28;20123;-62
2022/07/30 09:36:56;;;;;;;3.13;1.48;;;22.50;99.90;;;;;;5072818;28;20040;-61
2022/07/30 09:39:28;;;;;;;3.53;1.33;;;22.60;99.90;;;;;;5073033;28;20036;-62
2022/07/30 09:41:55;;;;;;;4.38;1.75;;;22.60;99.90;;;;;;5073001;28;20434;-62
2022/07/30 09:44:26;;;;;;;3.25;1.35;;;22.60;99.90;;;;;;5071399;28;20044;-61
2022/07/30 09:46:52;;;;;;;2.78;1.75;;;22.60;99.90;;;;;;5072733;28;20491;-62
2022/07/30 09:49:24;;;;;;;3.40;1.42;;;22.70;99.90;;;;;;5073297;28;20411;-62
2022/07/30 09:51:50;;;;;;;3.85;1.92;;;22.80;99.90;;;;;;5072942;28;20388;-63
2022/07/30 09:54:17;;;;;;;2.25;1.25;;;23.00;99.90;;;;;;5072839;28;20037;-63
2022/07/30 09:56:44;;;;;;;1.67;1.30;;;23.00;99.90;;;;;;5072545;28;20029;-62
2022/07/30 09:59:31;;;;;;;2.30;1.20;;;23.10;99.90;;;;;;5071273;28;20106;-63
2022/07/30 10:01:57;;;;;;;1.80;1.20;;;23.00;99.90;;;;;;5072811;28;20044;-63
2022/07/30 10:04:27;;;;;;;3.03;1.20;;;23.00;99.90;;;;;;5072866;28;20078;-62
2022/07/30 10:06:53;;;;;;;;;;;23.10;99.90;;;;;;5073231;28;20041;-62
2022/07/30 10:09:31;;;;;;;2.72;1.20;;;23.20;99.90;;;;;;5072482;28;19966;-63
2022/07/30 10:11:59;;;;;;;1.95;1.30;;;23.30;99.90;;;;;;5071096;28;20115;-62
2022/07/30 10:14:29;;;;;;;2.47;1.42;;;;;;;;;;5073937;28;20051;-62
2022/07/30 10:16:55;;;;;;;5.38;1.45;;;;;;;;;;5076671;28;20037;-62
2022/07/30 10:19:21;;;;;;;3.92;1.58;;;;;;;;;;5076220;28;20465;-62
2022/07/30 10:21:52;;;;;;;2.60;1.70;;;23.60;99.90;;;;;;5076440;28;20431;-62
2022/07/30 10:24:19;;;;;;;2.22;1.75;;;23.50;99.90;;;;;;5076182;28;20074;-62
2022/07/30 10:26:48;;;;;;;3.60;1.77;;;23.50;99.90;;;;;;5076139;28;20044;-62
2022/07/30 10:29:18;;;;;;;3.00;1.10;;;23.60;99.90;;;;;;5076421;28;20084;-62
2022/07/30 10:31:45;;;;;;;2.42;1.20;;;23.30;99.90;;;;;;5074919;28;20044;-62
2022/07/30 10:34:12;;;;;;;3.05;1.38;;;23.40;99.90;;;;;;5074779;28;20086;-62
2022/07/30 10:36:44;;;;;;;4.30;1.63;;;23.70;99.90;;;;;;5076035;28;20047;-62
2022/07/30 10:39:16;;;;;;;2.33;1.40;;;23.70;99.90;;;;;;5075939;28;20051;-62
2022/07/30 10:42:00;;;;;;;2.13;1.25;;;23.90;99.90;;;;;;5076173;28;20036;-63
2022/07/30 10:44:30;;;;;;;2.35;1.00;;;23.90;99.90;;;;;;5076191;28;20067;-62
2022/07/30 10:47:06;;;;;;;1.75;1.10;;;23.80;99.90;;;;;;5074905;28;20127;-63
2022/07/30 10:49:32;;;;;;;3.88;1.40;;;23.80;99.90;;;;;;5076087;28;20130;-62
2022/07/30 10:51:57;;;;;;;2.38;1.60;;;23.80;99.90;;;;;;5075654;28;20484;-62
2022/07/30 10:54:32;;;;;;;1.15;0.98;;;23.70;99.90;;;;;;5075633;28;20036;-61
2022/07/30 10:57:20;;;;;;;3.08;1.33;;;23.70;99.90;;;;;;5075929;28;20503;-62
2022/07/30 10:59:48;;;;;;;3.30;1.40;;;23.50;99.90;;;;;;5075893;28;20044;-62
2022/07/30 11:02:16;;;;;;;2.33;1.40;;;23.30;99.90;;;;;;5075742;28;20396;-60
2022/07/30 11:04:41;;;;;;;1.60;1.20;;;23.50;99.90;;;;;;5075833;28;20076;-60
2022/07/30 11:07:22;;;;;;;2.80;1.50;;;23.60;99.90;;;;;;5075842;28;20538;-60
2022/07/30 11:09:52;;;;;;;1.63;1.17;;;23.70;99.90;;;;;;5075707;28;20052;-60
2022/07/30 11:12:40;;;;;;;1.45;0.95;;;23.80;99.90;;;;;;5075377;28;20067;-60
2022/07/30 11:15:06;;;;;;;2.92;1.10;;;23.90;99.90;;;;;;5075605;28;20056;-60
2022/07/30 11:17:56;;;;;;;1.10;0.82;;;23.80;99.90;;;;;;5075625;28;20498;-60
2022/07/30 11:20:22;;;;;;;1.58;0.90;;;23.70;99.90;;;;;;5075567;28;20045;-60
2022/07/30 11:22:48;;;;;;;2.17;0.88;;;23.80;99.90;;;;;;5075511;28;20052;-60
2022/07/30 11:25:26;;;;;;;2.45;1.00;;;23.90;99.90;;;;;;5074257;28;20488;-59
2022/07/30 11:27:52;;;;;;;1.90;1.45;;;23.80;99.90;;;;;;5075391;28;20140;-60
2022/07/30 11:30:21;;;;;;;1.40;1.20;;;23.70;99.90;;;;;;5075397;28;20111;-59
2022/07/30 11:32:51;;;;;;;1.52;1.10;;;23.70;99.90;;;;;;5075001;28;20048;-61
2022/07/30 11:35:20;;;;;;;1.88;1.25;;;23.60;99.90;;;;;;5074785;28;20076;-61
2022/07/30 11:37:56;;;;;;;2.20;1.30;;;23.50;99.90;;;;;;5075237;28;20396;-60
2022/07/30 11:40:24;;;;;;;2.75;1.23;;;23.60;99.90;;;;;;5074985;28;20040;-60
2022/07/30 11:43:10;;;;;;;1.80;1.20;;;23.70;99.90;;;;;;5075025;28;20075;-59
2022/07/30 11:45:36;;;;;;;1.80;1.15;;;23.90;99.90;;;;;;5074444;28;20072;-61
2022/07/30 11:48:09;;;;;;;4.32;1.17;;;24.00;99.90;;;;;;5074574;28;20467;-61
2022/07/30 11:50:35;;;;;;;2.05;1.20;;;23.90;99.90;;;;;;5073635;28;20560;-60
2022/07/30 11:53:04;;;;;;;2.28;0.90;;;23.80;99.90;;;;;;5073391;28;20127;-60
2022/07/30 11:55:38;;;;;;;0.98;0.90;;;23.80;99.90;;;;;;5074785;28;20049;-61
2022/07/30 11:58:08;;;;;;;1.45;1.00;;;23.70;99.90;;;;;;5074851;28;20476;-60
2022/07/30 12:00:46;;;;;;;1.48;0.88;;;23.60;99.90;;;;;;5074450;28;20033;-61
2022/07/30 12:03:17;;;;;;;4.80;1.15;;;23.60;99.90;;;;;;5074698;28;20075;-61
2022/07/30 12:05:44;;;;;;;3.40;0.98;;;23.80;99.90;;;;;;5074386;28;20043;-61
2022/07/30 12:08:11;;;;;;;2.42;1.17;;;24.00;99.90;;;;;;5074257;28;20048;-61
2022/07/30 12:10:38;;;;;;;1.30;1.10;;;24.00;99.90;;;;;;5074468;28;20036;-61
2022/07/30 12:13:13;;;;;;;1.60;1.00;;;23.90;99.90;;;;;;5074242;28;20059;-61
2022/07/30 12:15:41;;;;;;;2.20;1.20;;;23.90;99.90;;;;;;5074104;28;20131;-61
2022/07/30 12:18:07;;;;;;;2.75;1.05;;;24.00;99.90;;;;;;5074485;28;20033;-61
2022/07/30 12:20:33;;;;;;;1.77;0.82;;;24.00;99.90;;;;;;5074354;28;20415;-61
2022/07/30 12:23:01;;;;;;;2.47;1.27;;;23.90;99.90;;;;;;5074383;28;20047;-61
2022/07/30 12:25:27;;;;;;;1.90;1.00;;;23.80;99.90;;;;;;5074292;28;20052;-61
2022/07/30 12:27:52;;;;;;;3.58;1.25;;;23.70;99.90;;;;;;5074025;28;20055;-61
2022/07/30 12:30:18;;;;;;;2.03;0.90;;;23.70;99.90;;;;;;5074165;28;20240;-61
2022/07/30 12:32:46;;;;;;;1.30;1.10;;;23.90;99.90;;;;;;5073858;28;20040;-61
2022/07/30 12:35:12;;;;;;;2.97;1.38;;;23.90;99.90;;;;;;5072543;28;20071;-60
2022/07/30 12:37:38;;;;;;;3.88;1.42;;;23.80;99.90;;;;;;5073725;28;20033;-61
2022/07/30 12:40:12;;;;;;;1.10;0.77;;;24.00;99.90;;;;;;5073776;28;20047;-61
2022/07/30 12:42:53;;;;;;;3.80;1.33;;;24.30;99.90;;;;;;5073980;28;20036;-61
2022/07/30 12:45:27;;;;;;;2.25;1.05;;;;;;;;;;5073887;28;20052;-61
2022/07/30 12:47:52;;;;;;;0.80;0.75;;;24.90;99.90;;;;;;5073594;28;20041;-62
2022/07/30 12:50:18;;;;;;;2.50;0.80;;;24.80;99.90;;;;;;5073800;28;20412;-61
2022/07/30 12:52:50;;;;;;;1.38;1.10;;;24.80;99.90;;;;;;5073596;28;20051;-61